createdAt,value
2018-09-16T00:00:34.328Z,6.33
2018-09-16T00:03:03.190Z,5.30
2018-09-16T00:05:31.753Z,5.43
2018-09-16T00:08:00.666Z,6.73
2018-09-16T00:10:29.241Z,6.60
2018-09-16T00:12:58.119Z,7.40
2018-09-16T00:15:26.773Z,5.33
2018-09-16T00:17:55.337Z,5.00
2018-09-16T00:20:23.879Z,7.53
2018-09-16T00:22:52.815Z,8.17
2018-09-16T00:25:22.780Z,6.47
2018-09-16T00:27:51.788Z,5.13
2018-09-16T00:30:24.148Z,6.87
2018-09-16T00:32:56.475Z,6.20
2018-09-16T00:35:30.696Z,5.93
2018-09-16T00:38:02.933Z,7.77
2018-09-16T00:40:33.324Z,4.93
2018-09-16T00:43:03.307Z,5.87
2018-09-16T00:45:32.692Z,6.37
2018-09-16T00:48:02.499Z,6.77
2018-09-16T00:50:32.029Z,6.10
2018-09-16T00:53:00.589Z,5.53
2018-09-16T00:55:29.094Z,6.63
2018-09-16T00:57:57.666Z,6.87
2018-09-16T01:00:26.236Z,8.27
2018-09-16T01:02:54.991Z,7.57
2018-09-16T01:05:23.836Z,6.43
2018-09-16T01:07:52.426Z,6.57
2018-09-16T01:10:21.075Z,6.77
2018-09-16T01:12:49.672Z,6.17
2018-09-16T01:15:18.291Z,8.93
2018-09-16T01:17:47.416Z,8.47
2018-09-16T01:20:16.679Z,7.37
2018-09-16T01:22:45.232Z,8.17
2018-09-16T01:25:14.618Z,7.30
2018-09-16T01:27:43.200Z,7.17
2018-09-16T01:30:11.859Z,8.23
2018-09-16T01:32:41.031Z,7.73
2018-09-16T01:35:09.737Z,6.50
2018-09-16T01:37:43.611Z,8.63
2018-09-16T01:40:12.161Z,6.80
2018-09-16T01:42:41.605Z,5.97
2018-09-16T01:45:10.132Z,7.90
2018-09-16T01:47:39.166Z,6.97
2018-09-16T01:50:07.718Z,7.77
2018-09-16T01:52:36.195Z,6.80
2018-09-16T01:55:05.006Z,6.27
2018-09-16T01:57:33.567Z,7.93
2018-09-16T02:00:02.082Z,6.67
2018-09-16T02:02:30.567Z,7.27
2018-09-16T02:04:59.058Z,7.07
2018-09-16T02:07:27.631Z,6.77
2018-09-16T02:09:56.072Z,8.67
2018-09-16T02:12:24.627Z,9.03
2018-09-16T02:14:53.175Z,7.23
2018-09-16T02:17:21.700Z,9.30
2018-09-16T02:19:50.392Z,7.00
2018-09-16T02:22:19.033Z,7.00
2018-09-16T02:24:47.670Z,7.37
2018-09-16T02:27:16.921Z,6.40
2018-09-16T02:29:45.545Z,6.53
2018-09-16T02:32:14.212Z,8.23
2018-09-16T02:34:43.019Z,6.27
2018-09-16T02:37:12.121Z,8.60
2018-09-16T02:39:41.209Z,7.80
2018-09-16T02:42:10.756Z,7.27
2018-09-16T02:44:40.471Z,8.57
2018-09-16T02:47:09.132Z,9.17
2018-09-16T02:49:38.435Z,7.57
2018-09-16T02:52:07.001Z,8.90
2018-09-16T02:54:35.592Z,6.57
2018-09-16T02:57:04.092Z,6.47
2018-09-16T02:59:32.647Z,8.80
2018-09-16T03:02:01.166Z,6.63
2018-09-16T03:04:30.071Z,7.50
2018-09-16T03:06:58.611Z,10.03
2018-09-16T03:09:27.878Z,8.93
2018-09-16T03:11:56.973Z,7.73
2018-09-16T03:14:25.649Z,7.20
2018-09-16T03:16:54.219Z,7.37
2018-09-16T03:19:22.798Z,10.83
2018-09-16T03:21:52.007Z,7.73
2018-09-16T03:24:20.674Z,7.73
2018-09-16T03:26:49.215Z,7.07
2018-09-16T03:29:17.946Z,7.33
2018-09-16T03:31:46.703Z,6.20
2018-09-16T03:34:16.722Z,7.93
2018-09-16T03:36:45.359Z,8.60
2018-09-16T03:39:14.431Z,8.30
2018-09-16T03:41:44.102Z,9.07
2018-09-16T03:44:12.762Z,7.73
2018-09-16T03:46:41.621Z,7.83
2018-09-16T03:49:10.665Z,9.90
2018-09-16T03:51:39.440Z,8.40
2018-09-16T03:54:08.067Z,8.63
2018-09-16T03:56:36.596Z,7.30
2018-09-16T03:59:05.135Z,7.23
2018-09-16T04:01:34.142Z,6.77
2018-09-16T04:04:02.773Z,7.83
2018-09-16T04:06:31.269Z,6.97
2018-09-16T04:08:59.813Z,13.53
2018-09-16T04:11:28.364Z,10.80
2018-09-16T04:13:56.917Z,7.37
2018-09-16T04:16:25.553Z,9.63
2018-09-16T04:18:54.801Z,8.37
2018-09-16T04:21:23.357Z,8.90
2018-09-16T04:23:52.154Z,10.17
2018-09-16T04:26:20.714Z,9.10
2018-09-16T04:28:49.169Z,8.10
2018-09-16T04:31:17.665Z,7.87
2018-09-16T04:33:46.216Z,8.03
2018-09-16T04:36:15.235Z,8.37
2018-09-16T04:38:43.764Z,9.23
2018-09-16T04:41:12.445Z,10.87
2018-09-16T04:43:41.589Z,10.43
2018-09-16T04:46:10.111Z,9.43
2018-09-16T04:48:39.710Z,9.13
2018-09-16T04:51:08.270Z,9.67
2018-09-16T04:53:36.741Z,8.03
2018-09-16T04:56:05.258Z,8.47
2018-09-16T04:58:33.735Z,8.93
2018-09-16T05:01:02.647Z,8.83
2018-09-16T05:03:31.113Z,8.70
2018-09-16T05:05:59.616Z,9.23
2018-09-16T05:08:28.296Z,14.00
2018-09-16T05:10:56.876Z,11.43
2018-09-16T05:13:25.349Z,7.93
2018-09-16T05:15:53.855Z,8.37
2018-09-16T05:18:22.366Z,8.77
2018-09-16T05:20:50.843Z,8.10
2018-09-16T05:23:19.498Z,10.60
2018-09-16T05:25:48.148Z,12.07
2018-09-16T05:28:16.851Z,10.70
2018-09-16T05:30:45.455Z,10.40
2018-09-16T05:33:13.997Z,8.80
2018-09-16T05:35:42.869Z,11.87
2018-09-16T05:38:11.464Z,9.70
2018-09-16T05:40:40.655Z,10.27
2018-09-16T05:43:09.211Z,10.30
2018-09-16T05:45:37.926Z,9.40
2018-09-16T05:48:06.388Z,9.70
2018-09-16T05:50:34.890Z,9.27
2018-09-16T05:53:03.791Z,11.43
2018-09-16T05:55:32.255Z,11.03
2018-09-16T05:58:00.735Z,12.20
2018-09-16T06:00:29.610Z,10.03
2018-09-16T06:02:58.394Z,11.47
2018-09-16T06:05:27.031Z,9.87
2018-09-16T06:07:55.701Z,9.53
2018-09-16T06:10:24.267Z,10.30
2018-09-16T06:12:52.854Z,10.13
2018-09-16T06:15:21.511Z,11.07
2018-09-16T06:17:50.021Z,13.37
2018-09-16T06:20:18.688Z,10.30
2018-09-16T06:22:47.343Z,10.57
2018-09-16T06:25:16.945Z,10.67
2018-09-16T06:27:45.577Z,10.03
2018-09-16T06:30:14.336Z,14.83
2018-09-16T06:32:42.877Z,8.80
2018-09-16T06:35:12.459Z,9.67
2018-09-16T06:37:41.029Z,9.47
2018-09-16T06:40:09.543Z,11.93
2018-09-16T06:42:38.071Z,8.63
2018-09-16T06:45:06.720Z,10.40
2018-09-16T06:47:35.744Z,7.13
2018-09-16T06:50:04.344Z,8.27
2018-09-16T06:52:32.924Z,8.70
2018-09-16T06:55:01.412Z,14.57
2018-09-16T06:57:30.085Z,8.63
2018-09-16T06:59:58.581Z,10.47
2018-09-16T07:02:27.145Z,8.33
2018-09-16T07:04:56.143Z,10.60
2018-09-16T07:07:24.688Z,7.87
2018-09-16T07:09:53.187Z,10.30
2018-09-16T07:12:22.224Z,9.80
2018-09-16T07:14:50.936Z,9.27
2018-09-16T07:17:19.499Z,6.70
2018-09-16T07:19:48.668Z,9.47
2018-09-16T07:22:17.264Z,6.50
2018-09-16T07:24:46.148Z,7.13
2018-09-16T07:27:15.205Z,8.33
2018-09-16T07:29:43.748Z,8.23
2018-09-16T07:32:13.470Z,7.03
2018-09-16T07:34:42.123Z,7.00
2018-09-16T07:37:14.436Z,6.20
2018-09-16T07:39:45.440Z,7.40
2018-09-16T07:42:14.068Z,7.30
2018-09-16T07:44:42.660Z,7.07
2018-09-16T07:47:11.336Z,6.83
2018-09-16T07:49:41.272Z,8.70
2018-09-16T07:52:09.947Z,5.90
2018-09-16T07:54:40.127Z,6.27
2018-09-16T07:57:10.780Z,7.40
2018-09-16T07:59:40.453Z,9.00
2018-09-16T08:02:09.837Z,6.43
2018-09-16T08:04:39.105Z,6.67
2018-09-16T08:07:07.660Z,5.27
2018-09-16T08:09:36.169Z,5.10
2018-09-16T08:12:04.704Z,7.27
2018-09-16T08:14:33.265Z,7.87
2018-09-16T08:17:01.789Z,5.17
2018-09-16T08:19:30.248Z,6.17
2018-09-16T08:21:58.761Z,6.87
2018-09-16T08:24:27.377Z,5.80
2018-09-16T08:26:56.249Z,5.80
2018-09-16T08:29:24.938Z,5.30
2018-09-16T08:31:53.991Z,5.77
2018-09-16T08:34:22.637Z,5.90
2018-09-16T08:36:51.411Z,6.77
2018-09-16T08:39:19.962Z,5.63
2018-09-16T08:41:48.745Z,4.77
2018-09-16T08:44:17.442Z,5.03
2018-09-16T08:46:45.947Z,3.80
2018-09-16T08:49:14.614Z,5.40
2018-09-16T08:51:43.526Z,4.03
2018-09-16T08:54:12.095Z,4.83
2018-09-16T08:56:41.379Z,4.80
2018-09-16T08:59:09.952Z,3.80
2018-09-16T09:01:38.854Z,5.17
2018-09-16T09:04:07.384Z,4.73
2018-09-16T09:06:36.065Z,4.67
2018-09-16T09:09:07.619Z,5.10
2018-09-16T09:11:36.298Z,3.13
2018-09-16T09:14:05.859Z,3.70
2018-09-16T09:16:34.360Z,4.43
2018-09-16T09:19:02.985Z,5.43
2018-09-16T09:21:31.556Z,5.97
2018-09-16T09:24:00.026Z,2.97
2018-09-16T09:26:28.577Z,4.87
2018-09-16T09:28:57.189Z,4.40
2018-09-16T09:31:25.747Z,3.13
2018-09-16T09:33:54.425Z,7.03
2018-09-16T09:36:23.089Z,2.90
2018-09-16T09:38:52.383Z,3.33
2018-09-16T09:41:20.881Z,3.47
2018-09-16T09:43:49.480Z,3.30
2018-09-16T09:46:18.237Z,2.73
2018-09-16T09:48:46.752Z,2.23
2018-09-16T09:51:16.406Z,2.80
2018-09-16T09:53:46.393Z,3.67
2018-09-16T09:56:14.947Z,2.73
2018-09-16T09:58:43.632Z,2.43
2018-09-16T10:01:12.202Z,1.77
2018-09-16T10:03:41.265Z,2.77
2018-09-16T10:06:10.084Z,2.43
2018-09-16T10:08:38.877Z,2.70
2018-09-16T10:11:08.880Z,3.30
2018-09-16T10:13:37.726Z,2.33
2018-09-16T10:16:08.760Z,3.17
2018-09-16T10:18:41.939Z,2.17
2018-09-16T10:21:12.212Z,2.00
2018-09-16T10:23:42.805Z,2.70
2018-09-16T10:26:14.366Z,2.87
2018-09-16T10:28:45.119Z,2.10
2018-09-16T10:31:14.421Z,4.27
2018-09-16T10:33:44.693Z,2.80
2018-09-16T10:36:14.551Z,3.07
2018-09-16T10:38:44.539Z,2.87
2018-09-16T10:41:14.425Z,2.70
2018-09-16T10:43:44.088Z,1.90
2018-09-16T10:46:12.732Z,2.20
2018-09-16T10:48:42.977Z,2.50
2018-09-16T10:51:12.992Z,1.57
2018-09-16T10:53:43.299Z,2.77
2018-09-16T10:56:13.705Z,3.33
2018-09-16T10:58:44.316Z,2.77
2018-09-16T11:01:13.054Z,2.40
2018-09-16T11:03:41.705Z,2.47
2018-09-16T11:06:10.210Z,3.77
2018-09-16T11:08:39.639Z,4.10
2018-09-16T11:11:08.285Z,2.53
2018-09-16T11:13:37.037Z,2.63
2018-09-16T11:16:08.276Z,2.07
2018-09-16T11:18:38.334Z,2.60
2018-09-16T11:21:07.123Z,5.10
2018-09-16T11:23:36.517Z,1.70
2018-09-16T11:26:05.332Z,1.40
2018-09-16T11:28:34.057Z,3.57
2018-09-16T11:31:02.732Z,2.23
2018-09-16T11:33:31.608Z,2.63
2018-09-16T11:36:00.202Z,3.03
2018-09-16T11:38:29.041Z,1.37
2018-09-16T11:40:57.691Z,3.47
2018-09-16T11:43:26.176Z,2.60
2018-09-16T11:45:54.727Z,1.60
2018-09-16T11:48:23.399Z,2.13
2018-09-16T11:50:52.399Z,2.60
2018-09-16T11:53:21.312Z,4.90
2018-09-16T11:55:50.623Z,3.17
2018-09-16T11:58:21.184Z,1.77
2018-09-16T12:00:50.559Z,2.17
2018-09-16T12:03:20.035Z,2.40
2018-09-16T12:05:48.645Z,2.60
2018-09-16T12:08:17.305Z,2.53
2018-09-16T12:10:48.634Z,2.07
2018-09-16T12:13:17.339Z,3.07
2018-09-16T12:15:46.210Z,1.37
2018-09-16T12:18:15.459Z,2.60
2018-09-16T12:20:44.656Z,2.23
2018-09-16T12:23:13.297Z,2.27
2018-09-16T12:25:42.288Z,2.07
2018-09-16T12:28:11.150Z,1.50
2018-09-16T12:30:40.749Z,2.80
2018-09-16T12:33:09.620Z,2.20
2018-09-16T12:35:39.317Z,4.73
2018-09-16T12:38:07.790Z,2.03
2018-09-16T12:40:36.448Z,1.60
2018-09-16T12:43:05.078Z,3.60
2018-09-16T12:45:33.721Z,1.40
2018-09-16T12:48:03.238Z,2.67
2018-09-16T12:50:31.871Z,4.17
2018-09-16T12:53:01.199Z,3.07
2018-09-16T12:55:30.791Z,3.53
2018-09-16T12:58:02.221Z,3.60
2018-09-16T13:00:31.237Z,1.57
2018-09-16T13:03:00.249Z,2.40
2018-09-16T13:05:28.953Z,1.67
2018-09-16T13:07:59.315Z,2.27
2018-09-16T13:10:30.068Z,3.93
2018-09-16T13:12:59.458Z,1.93
2018-09-16T13:15:28.160Z,2.73
2018-09-16T13:17:57.572Z,3.00
2018-09-16T13:20:26.282Z,2.27
2018-09-16T13:22:55.208Z,1.60
2018-09-16T13:25:23.710Z,2.10
2018-09-16T13:27:52.781Z,2.00
2018-09-16T13:30:21.564Z,1.63
2018-09-16T13:32:50.897Z,2.10
2018-09-16T13:35:20.565Z,3.07
2018-09-16T13:37:50.019Z,1.07
2018-09-16T13:40:19.241Z,2.30
2018-09-16T13:42:49.026Z,1.73
2018-09-16T13:45:18.694Z,1.63
2018-09-16T13:47:47.366Z,1.50
2018-09-16T13:50:16.413Z,2.10
2018-09-16T13:52:45.135Z,1.50
2018-09-16T13:55:15.325Z,1.50
2018-09-16T13:57:44.678Z,2.43
2018-09-16T14:00:13.336Z,3.60
2018-09-16T14:02:43.275Z,1.90
2018-09-16T14:05:16.421Z,2.80
2018-09-16T14:07:45.034Z,2.07
2018-09-16T14:10:14.120Z,2.07
2018-09-16T14:12:44.032Z,1.87
2018-09-16T14:15:12.723Z,1.77
2018-09-16T14:17:41.244Z,2.80
2018-09-16T14:20:09.758Z,2.30
2018-09-16T14:22:38.742Z,2.83
2018-09-16T14:25:07.316Z,1.67
2018-09-16T14:27:35.860Z,4.00
2018-09-16T14:30:04.695Z,1.50
2018-09-16T14:32:33.257Z,1.47
2018-09-16T14:35:03.467Z,1.97
2018-09-16T14:37:32.807Z,2.30
2018-09-16T14:40:01.582Z,2.47
2018-09-16T14:42:30.607Z,2.80
2018-09-16T14:44:59.896Z,1.37
2018-09-16T14:47:29.154Z,2.10
2018-09-16T14:49:59.797Z,3.03
2018-09-16T14:52:29.065Z,4.13
2018-09-16T14:54:57.549Z,1.60
2018-09-16T14:57:26.794Z,1.97
2018-09-16T14:59:56.500Z,1.97
2018-09-16T15:02:25.548Z,2.07
2018-09-16T15:04:55.580Z,1.40
2018-09-16T15:07:24.108Z,1.37
2018-09-16T15:09:53.319Z,3.40
2018-09-16T15:12:21.869Z,1.40
2018-09-16T15:14:50.372Z,2.23
2018-09-16T15:17:18.926Z,2.37
2018-09-16T15:19:49.126Z,1.90
2018-09-16T15:22:19.494Z,1.53
2018-09-16T15:24:49.266Z,1.23
2018-09-16T15:27:18.380Z,2.13
2018-09-16T15:29:48.126Z,2.03
2018-09-16T15:32:16.772Z,2.10
2018-09-16T15:34:46.404Z,1.50
2018-09-16T15:37:16.767Z,1.33
2018-09-16T15:39:46.843Z,1.30
2018-09-16T15:42:16.947Z,2.80
2018-09-16T15:44:46.466Z,2.53
2018-09-16T15:47:15.028Z,1.73
2018-09-16T15:49:45.287Z,2.03
2018-09-16T15:52:14.492Z,1.93
2018-09-16T15:54:44.609Z,1.50
2018-09-16T15:57:13.699Z,3.13
2018-09-16T15:59:43.099Z,1.40
2018-09-16T16:02:16.543Z,1.50
2018-09-16T16:04:46.360Z,2.47
2018-09-16T16:07:15.230Z,1.47
2018-09-16T16:09:43.839Z,1.90
2018-09-16T16:12:13.594Z,1.57
2018-09-16T16:14:42.412Z,2.07
2018-09-16T16:17:10.963Z,1.57
2018-09-16T16:19:40.559Z,1.60
2018-09-16T16:22:09.274Z,1.40
2018-09-16T16:24:38.274Z,1.50
2018-09-16T16:27:07.117Z,1.73
2018-09-16T16:29:36.290Z,1.97
2018-09-16T16:32:04.896Z,2.00
2018-09-16T16:34:33.598Z,1.40
2018-09-16T16:37:02.088Z,1.43
2018-09-16T16:39:30.583Z,2.33
2018-09-16T16:41:59.185Z,1.50
2018-09-16T16:44:28.020Z,1.90
2018-09-16T16:46:56.696Z,1.67
2018-09-16T16:49:25.204Z,2.13
2018-09-16T16:51:54.339Z,1.87
2018-09-16T16:54:23.561Z,1.27
2018-09-16T16:56:53.225Z,2.13
2018-09-16T16:59:22.197Z,1.30
2018-09-16T17:01:50.786Z,2.13
2018-09-16T17:04:19.877Z,2.73
2018-09-16T17:06:49.397Z,1.87
2018-09-16T17:09:19.583Z,4.70
2018-09-16T17:11:48.212Z,4.13
2018-09-16T17:14:16.952Z,2.30
2018-09-16T17:19:16.076Z,1.90
2018-09-16T17:21:45.302Z,3.07
2018-09-16T17:24:14.143Z,1.90
2018-09-16T17:26:43.175Z,1.13
2018-09-16T17:29:12.636Z,1.50
2018-09-16T17:31:41.246Z,1.53
2018-09-16T17:34:09.789Z,1.33
2018-09-16T17:36:40.450Z,2.53
2018-09-16T17:39:10.106Z,1.43
2018-09-16T17:41:38.884Z,1.60
2018-09-16T17:44:07.484Z,1.97
2018-09-16T17:46:36.412Z,2.40
2018-09-16T17:49:05.074Z,2.67
2018-09-16T17:51:33.986Z,1.83
2018-09-16T17:54:02.551Z,2.53
2018-09-16T17:56:31.113Z,1.40
2018-09-16T17:58:59.612Z,2.33
2018-09-16T18:01:28.294Z,1.50
2018-09-16T18:03:56.923Z,2.53
2018-09-16T18:06:25.519Z,2.83
2018-09-16T18:08:54.037Z,1.30
2018-09-16T18:11:22.599Z,3.40
2018-09-16T18:13:51.143Z,2.23
2018-09-16T18:16:19.698Z,2.20
2018-09-16T18:18:48.223Z,3.37
2018-09-16T18:21:17.346Z,2.07
2018-09-16T18:23:45.965Z,1.70
2018-09-16T18:26:14.519Z,1.37
2018-09-16T18:28:43.324Z,1.37
2018-09-16T18:31:11.867Z,1.17
2018-09-16T18:33:40.581Z,1.63
2018-09-16T18:36:09.794Z,1.83
2018-09-16T18:38:38.423Z,4.30
2018-09-16T18:41:07.010Z,1.70
2018-09-16T18:43:35.574Z,2.30
2018-09-16T18:46:04.849Z,1.50
2018-09-16T18:48:33.687Z,1.40
2018-09-16T18:51:02.217Z,2.80
2018-09-16T18:53:30.725Z,2.07
2018-09-16T18:55:59.610Z,5.23
2018-09-16T18:58:28.224Z,2.17
2018-09-16T19:00:56.747Z,2.30
2018-09-16T19:03:25.266Z,2.70
2018-09-16T19:05:53.780Z,2.77
2018-09-16T19:08:22.749Z,3.13
2018-09-16T19:10:51.378Z,1.60
2018-09-16T19:13:20.115Z,1.67
2018-09-16T19:15:49.182Z,4.03
2018-09-16T19:18:17.691Z,3.53
2018-09-16T19:20:46.250Z,2.80
2018-09-16T19:23:14.805Z,1.70
2018-09-16T19:25:43.521Z,2.57
2018-09-16T19:28:12.158Z,1.77
2018-09-16T19:30:41.096Z,1.90
2018-09-16T19:33:09.611Z,1.67
2018-09-16T19:35:38.408Z,1.70
2018-09-16T19:38:06.935Z,2.50
2018-09-16T19:40:39.115Z,1.90
2018-09-16T19:43:08.321Z,2.20
2018-09-16T19:45:37.517Z,1.70
2018-09-16T19:48:06.018Z,2.07
2018-09-16T19:50:34.813Z,4.13
2018-09-16T19:53:03.708Z,3.03
2018-09-16T19:55:32.281Z,1.50
2018-09-16T19:58:00.936Z,2.27
2018-09-16T20:00:29.491Z,1.90
2018-09-16T20:02:58.017Z,1.40
2018-09-16T20:05:26.594Z,2.60
2018-09-16T20:07:55.199Z,1.83
2018-09-16T20:10:23.761Z,2.83
2018-09-16T20:12:52.513Z,2.17
2018-09-16T20:15:21.523Z,2.27
2018-09-16T20:17:50.204Z,1.17
2018-09-16T20:20:18.930Z,1.40
2018-09-16T20:22:47.556Z,1.27
2018-09-16T20:25:16.206Z,1.73
2018-09-16T20:27:44.847Z,2.93
2018-09-16T20:30:13.416Z,3.13
2018-09-16T20:32:42.918Z,1.30
2018-09-16T20:35:11.736Z,1.40
2018-09-16T20:37:41.186Z,3.03
2018-09-16T20:40:09.833Z,1.93
2018-09-16T20:42:38.480Z,1.63
2018-09-16T20:45:07.334Z,2.00
2018-09-16T20:47:35.996Z,3.30
2018-09-16T20:50:04.909Z,2.80
2018-09-16T20:52:33.474Z,2.77
2018-09-16T20:55:01.976Z,1.60
2018-09-16T20:57:30.761Z,2.70
2018-09-16T20:59:59.363Z,2.10
2018-09-16T21:02:27.922Z,1.70
2018-09-16T21:04:56.566Z,2.17
2018-09-16T21:07:25.577Z,3.73
2018-09-16T21:09:54.202Z,3.83
2018-09-16T21:12:22.798Z,2.43
2018-09-16T21:14:51.782Z,3.23
2018-09-16T21:17:20.594Z,2.27
2018-09-16T21:19:49.408Z,2.00
2018-09-16T21:22:18.431Z,2.87
2018-09-16T21:24:47.507Z,2.17
2018-09-16T21:27:16.349Z,2.33
2018-09-16T21:29:44.888Z,1.50
2018-09-16T21:32:14.240Z,2.37
2018-09-16T21:34:43.591Z,2.50
2018-09-16T21:37:12.217Z,2.20
2018-09-16T21:39:40.849Z,2.13
2018-09-16T21:42:09.384Z,2.13
2018-09-16T21:44:38.286Z,2.73
2018-09-16T21:47:06.842Z,4.47
2018-09-16T21:49:35.437Z,2.90
2018-09-16T21:52:04.025Z,2.50
2018-09-16T21:54:33.060Z,1.60
2018-09-16T21:57:01.645Z,2.53
2018-09-16T21:59:30.526Z,2.27
2018-09-16T22:01:59.077Z,2.00
2018-09-16T22:04:27.629Z,1.90
2018-09-16T22:06:56.163Z,2.20
2018-09-16T22:09:25.019Z,2.23
2018-09-16T22:11:54.709Z,2.97
2018-09-16T22:14:23.240Z,2.13
2018-09-16T22:16:51.844Z,1.70
2018-09-16T22:19:20.446Z,2.50
2018-09-16T22:21:49.073Z,2.87
2018-09-16T22:24:17.667Z,2.10
2018-09-16T22:26:46.268Z,3.87
2018-09-16T22:29:15.226Z,2.37
2018-09-16T22:31:43.825Z,1.93
2018-09-16T22:34:12.906Z,1.70
2018-09-16T22:36:42.132Z,2.17
2018-09-16T22:39:11.815Z,2.37
2018-09-16T22:41:40.625Z,2.53
2018-09-16T22:44:09.360Z,1.60
2018-09-16T22:46:38.170Z,2.13
2018-09-16T22:49:06.683Z,1.80
2018-09-16T22:51:35.622Z,2.70
2018-09-16T22:54:04.254Z,2.23
2018-09-16T22:56:32.927Z,2.10
2018-09-16T22:59:01.471Z,1.67
2018-09-16T23:01:30.075Z,3.27
2018-09-16T23:03:58.638Z,2.73
2018-09-16T23:06:27.260Z,1.90
2018-09-16T23:09:00.924Z,4.40
2018-09-16T23:11:29.620Z,2.87
2018-09-16T23:13:58.601Z,2.87
2018-09-16T23:16:27.211Z,2.20
2018-09-16T23:18:55.806Z,2.13
2018-09-16T23:21:24.346Z,1.93
2018-09-16T23:23:52.940Z,1.93
2018-09-16T23:26:21.605Z,3.07
2018-09-16T23:28:50.549Z,3.07
2018-09-16T23:31:19.203Z,2.00
2018-09-16T23:33:48.392Z,1.93
2018-09-16T23:36:16.992Z,2.80
2018-09-16T23:38:45.759Z,2.90
2018-09-16T23:41:15.030Z,2.60
2018-09-16T23:43:44.253Z,3.17
2018-09-16T23:46:12.900Z,1.90
2018-09-16T23:48:41.957Z,2.17
2018-09-16T23:51:10.778Z,2.87
2018-09-16T23:53:39.546Z,2.30
2018-09-16T23:56:08.991Z,2.27
2018-09-16T23:58:37.626Z,2.43
